Time;durP1;ratioP1;P1;durP2;ratioP2;P2;SDS_P1;SDS_P2;PMS_P1;PMS_P2;Temp;Humidity;BMP_temperature;BMP_pressure;BME280_temperature;BME280_humidity;BME280_pressure;Samples;Min_cycle;Max_cycle;Signal;HPM_P1;HPM_P2
2022/09/15 00:01:43;;;;;;;9.43;5.87;;;;;;;15.88;100.00;97686.19;4287406;81;21416;-82
2022/09/15 00:07:44;;;;;;;7.72;5.35;;;;;;;15.88;100.00;97682.67;4308078;81;21003;-82
2022/09/15 00:13:45;;;;;;;7.08;5.22;;;;;;;15.90;100.00;97660.91;4295294;81;21062;-82
2022/09/15 00:19:47;;;;;;;8.00;5.00;;;;;;;15.86;100.00;97645.09;4282202;81;21962;-83
2022/09/15 00:25:51;;;;;;;8.40;5.45;;;;;;;15.89;100.00;97634.55;4285477;81;21963;-82
2022/09/15 00:32:18;;;;;;;12.43;4.60;;;;;;;15.83;100.00;97608.13;4281322;81;21010;-82
2022/09/15 00:38:20;;;;;;;7.28;5.17;;;;;;;15.84;100.00;97615.77;4282843;81;21068;-83
2022/09/15 00:44:48;;;;;;;7.45;4.83;;;;;;;15.85;100.00;97609.81;4269801;81;21118;-82
2022/09/15 00:50:55;;;;;;;8.63;4.37;;;;;;;15.86;100.00;97589.30;4288000;81;21086;-82
2022/09/15 00:57:04;;;;;;;6.97;5.45;;;;;;;15.89;100.00;97586.25;4292613;81;21047;-81
2022/09/15 01:03:06;;;;;;;18.27;6.15;;;;;;;15.83;100.00;97574.23;4289925;81;21639;-82
2022/09/15 01:09:22;;;;;;;8.78;5.58;;;;;;;15.82;100.00;97578.22;4357935;80;21473;-82
2022/09/15 01:15:36;;;;;;;8.45;5.97;;;;;;;15.82;100.00;97570.69;4365980;80;20931;-81
2022/09/15 01:21:52;;;;;;;7.15;5.87;;;;;;;15.83;100.00;97548.80;4296969;81;21031;-83
2022/09/15 01:28:35;;;;;;;9.88;6.22;;;;;;;15.86;100.00;97551.27;4329743;80;20999;-83
2022/09/15 01:34:42;;;;;;;9.83;5.53;;;;;;;15.89;100.00;97554.52;4320535;80;21020;-83
2022/09/15 01:40:49;;;;;;;9.65;5.55;;;;;;;15.91;100.00;97552.84;4303357;81;21110;-81
2022/09/15 01:47:04;;;;;;;12.98;6.08;;;;;;;15.93;100.00;97553.18;4314294;81;21029;-82
2022/09/15 01:53:12;;;;;;;11.55;6.62;;;;;;;15.91;100.00;97547.33;4317683;81;21032;-82
2022/09/15 01:59:13;;;;;;;8.38;6.42;;;;;;;15.92;100.00;97541.20;4307077;81;21078;-82
2022/09/15 02:05:35;;;;;;;9.38;7.12;;;;;;;15.91;100.00;97543.81;4296083;81;21011;-81
2022/09/15 02:25:18;;;;;;;13.13;7.35;;;;;;;15.96;100.00;97539.87;4307446;81;21059;-81
2022/09/15 02:31:28;;;;;;;11.65;6.80;;;;;;;15.96;100.00;97532.97;4292636;82;20996;-81
2022/09/15 02:37:30;;;;;;;8.28;7.15;;;;;;;15.91;100.00;97530.02;4308764;81;21075;-81
2022/09/15 02:43:32;;;;;;;13.83;7.55;;;;;;;15.91;100.00;97523.12;4307045;81;21018;-81
2022/09/15 02:49:34;;;;;;;8.38;6.65;;;;;;;15.87;100.00;97533.48;4312103;81;21088;-82
2022/09/15 02:55:35;;;;;;;14.20;7.85;;;;;;;15.87;100.00;97530.73;4307432;81;21045;-83
2022/09/15 03:01:37;;;;;;;9.03;7.03;;;;;;;15.80;100.00;97519.94;4308102;81;21423;-81
2022/09/15 03:07:39;;;;;;;10.15;7.95;;;;;;;15.82;100.00;97516.14;4307339;81;21671;-82
2022/09/15 03:13:41;;;;;;;10.70;8.25;;;;;;;15.85;100.00;97510.48;4308722;81;21034;-81
2022/09/15 03:19:42;;;;;;;13.85;8.80;;;;;;;15.90;100.00;97511.30;4310352;81;20998;-81
2022/09/15 03:25:45;;;;;;;13.18;8.43;;;;;;;15.91;100.00;97510.07;4305283;81;20979;-81
2022/09/15 03:31:46;;;;;;;9.20;7.83;;;;;;;15.91;100.00;97504.55;4314508;81;21858;-81
2022/09/15 03:37:51;;;;;;;11.57;8.58;;;;;;;15.92;100.00;97508.09;4318703;80;21512;-81
2022/09/15 03:43:53;;;;;;;13.40;8.60;;;;;;;15.91;100.00;97503.80;4327945;80;21043;-82
2022/09/15 03:49:55;;;;;;;11.30;8.05;;;;;;;15.93;100.00;97494.48;4260037;82;21563;-81
2022/09/15 03:56:25;;;;;;;13.45;8.53;;;;;;;15.94;100.00;97494.03;4322876;80;21006;-81
2022/09/15 04:02:32;;;;;;;10.45;8.25;;;;;;;15.93;100.00;97489.70;4322088;80;21526;-81
2022/09/15 04:08:35;;;;;;;11.22;8.23;;;;;;;15.89;100.00;97493.81;4197673;83;21102;-81
2022/09/15 04:14:37;;;;;;;9.45;8.20;;;;;;;15.89;100.00;97490.45;4329928;80;21019;-81
2022/09/15 04:20:44;;;;;;;16.15;9.20;;;;;;;15.87;100.00;97482.44;4280471;82;21890;-82
2022/09/15 04:26:46;;;;;;;11.90;8.10;;;;;;;15.91;100.00;97481.73;4201504;83;20999;-81
2022/09/15 04:32:48;;;;;;;8.85;7.42;;;;;;;15.93;100.00;97480.68;4214128;83;20987;-81
2022/09/15 04:38:51;;;;;;;9.10;7.25;;;;;;;15.96;100.00;97477.02;4266262;81;21523;-81
2022/09/15 04:44:53;;;;;;;10.00;7.67;;;;;;;15.98;100.00;97472.59;4365669;80;21526;-82
2022/09/15 04:51:01;;;;;;;10.70;8.65;;;;;;;16.01;100.00;97473.67;4284217;81;21019;-82
2022/09/15 04:57:03;;;;;;;10.65;8.40;;;;;;;15.97;100.00;97477.95;4331406;80;21065;-84
2022/09/15 05:03:05;;;;;;;11.12;8.40;;;;;;;15.98;100.00;97471.81;4358577;80;21062;-81
2022/09/15 05:09:12;;;;;;;10.43;8.70;;;;;;;16.06;100.00;97472.51;4295102;81;21012;-81
2022/09/15 05:15:13;;;;;;;;;;;;;;;16.10;100.00;97466.88;4292198;80;22248;-83
2022/09/15 05:21:17;;;;;;;13.90;8.93;;;;;;;16.15;100.00;97464.90;4276039;81;20807;-82
2022/09/15 05:27:19;;;;;;;12.95;9.60;;;;;;;16.20;100.00;97465.71;4288900;80;20988;-81
2022/09/15 05:33:22;;;;;;;21.05;9.13;;;;;;;16.22;100.00;97466.83;4354049;80;20974;-81
2022/09/15 05:39:24;;;;;;;12.07;8.48;;;;;;;16.24;100.00;97464.99;4341062;80;22001;-82
2022/09/15 05:45:25;;;;;;;12.43;8.73;;;;;;;16.26;100.00;97460.55;4331276;80;20980;-81
2022/09/15 05:52:03;;;;;;;15.98;8.85;;;;;;;16.32;100.00;97464.28;4275771;81;21005;-82
2022/09/15 05:58:07;;;;;;;11.38;7.95;;;;;;;16.39;100.00;97466.02;4277758;82;20999;-81
2022/09/15 06:04:08;;;;;;;9.40;7.10;;;;;;;16.46;100.00;97464.42;4268209;81;21531;-82
2022/09/15 06:10:10;;;;;;;7.80;5.72;;;;;;;16.52;100.00;97459.85;4252941;81;21068;-81
2022/09/15 06:16:17;;;;;;;6.08;4.58;;;;;;;16.56;100.00;97457.12;4273134;81;21067;-81
2022/09/15 06:22:19;;;;;;;;;;;;;;;16.63;100.00;97460.23;4312134;81;21111;-82
2022/09/15 06:28:21;;;;;;;4.83;4.28;;;;;;;16.70;100.00;97458.57;4491994;79;20110;-81
2022/09/15 06:34:22;;;;;;;5.05;3.92;;;;;;;16.80;100.00;97467.09;4475320;78;21107;-81
2022/09/15 06:40:24;;;;;;;4.28;3.65;;;;;;;16.87;100.00;97467.58;4493877;78;20965;-81
2022/09/15 06:46:29;;;;;;;8.85;3.58;;;;;;;16.97;100.00;97469.78;4457431;78;21527;-82
2022/09/15 06:52:31;;;;;;;8.15;3.92;;;;;;;17.04;100.00;97478.56;4483574;78;20971;-81
2022/09/15 06:58:38;;;;;;;6.20;4.05;;;;;;;17.08;100.00;97493.64;4471898;78;21087;-82
2022/09/15 07:04:40;;;;;;;4.92;4.00;;;;;;;17.13;100.00;97496.58;4473853;78;21056;-82
2022/09/15 07:10:43;;;;;;;6.53;3.83;;;;;;;17.13;100.00;97515.18;4463719;78;21038;-82
2022/09/15 07:16:46;;;;;;;8.33;3.90;;;;;;;17.10;100.00;97528.53;4483478;78;21888;-82
2022/09/15 07:22:50;;;;;;;5.97;2.85;;;;;;;17.06;100.00;97535.56;4467907;78;21535;-84
2022/09/15 07:28:56;;;;;;;4.10;2.30;;;;;;;17.11;100.00;97537.75;4473770;78;21841;-82
2022/09/15 07:34:58;;;;;;;4.28;2.70;;;;;;;17.20;100.00;97551.62;4438160;78;20996;-83
2022/09/15 07:41:08;;;;;;;3.33;2.02;;;;;;;17.28;100.00;97565.16;4484374;78;21016;-82
2022/09/15 07:47:10;;;;;;;6.28;3.12;;;;;;;17.36;100.00;97581.05;4426358;79;21429;-82
2022/09/15 07:53:11;;;;;;;5.70;2.20;;;;;;;17.48;100.00;97584.98;4473047;78;21025;-84
2022/09/15 07:59:13;;;;;;;9.50;2.20;;;;;;;17.63;100.00;97603.95;4470682;78;21028;-82
2022/09/15 08:05:15;;;;;;;6.55;2.20;;;;;;;17.72;100.00;97617.22;4466026;78;20944;-81
2022/09/15 08:11:19;;;;;;;2.45;1.92;;;;;;;17.81;100.00;97633.86;4487180;78;21000;-82
2022/09/15 08:17:20;;;;;;;1.00;0.90;;;;;;;17.85;100.00;97658.03;4444101;78;21039;-82
2022/09/15 08:23:22;;;;;;;2.20;1.42;;;;;;;17.67;100.00;97698.66;4405652;78;21053;-82
2022/09/15 08:29:24;;;;;;;1.27;0.95;;;;;;;17.11;100.00;97722.22;4403758;79;21884;-81
2022/09/15 08:35:25;;;;;;;2.75;0.98;;;;;;;16.78;100.00;97743.88;4409723;79;20984;-82
2022/09/15 08:41:38;;;;;;;1.87;1.22;;;;;;;16.59;100.00;97755.95;4376579;79;20996;-82
2022/09/15 08:47:46;;;;;;;2.00;1.37;;;;;;;16.51;100.00;97751.09;4379327;79;21440;-83
2022/09/15 08:53:54;;;;;;;2.17;1.30;;;;;;;16.60;100.00;97765.03;4385666;79;21003;-83
2022/09/15 08:59:57;;;;;;;3.33;1.07;;;;;;;16.77;100.00;97776.11;4391604;79;21057;-83
2022/09/15 09:06:04;;;;;;;2.98;1.52;;;;;;;16.95;100.00;97795.03;4277694;81;21078;-82
2022/09/15 09:12:43;;;;;;;2.02;1.20;;;;;;;17.03;100.00;97817.67;4382253;79;21027;-82
2022/09/15 09:19:18;;;;;;;1.35;1.25;;;;;;;17.48;100.00;97807.69;4218728;82;22047;-84
2022/09/15 09:25:21;;;;;;;2.75;1.20;;;;;;;17.80;100.00;97828.84;4209835;83;21015;-82
2022/09/15 09:31:24;;;;;;;8.85;1.20;;;;;;;17.78;100.00;97837.42;4240545;83;21572;-83
2022/09/15 09:37:26;;;;;;;3.17;1.00;;;;;;;17.89;100.00;97843.35;4197588;83;21053;-83
2022/09/15 09:43:35;;;;;;;1.27;0.90;;;;;;;18.04;100.00;97836.84;4196636;83;21660;-83
2022/09/15 09:49:46;;;;;;;2.75;1.17;;;;;;;18.22;100.00;97837.58;4408465;78;21087;-82
2022/09/15 09:55:49;;;;;;;4.15;1.10;;;;;;;18.23;100.00;97846.03;4447661;78;21944;-83
2022/09/15 10:02:27;;;;;;;2.87;1.25;;;;;;;18.16;100.00;97841.55;4456570;80;20958;-83
2022/09/15 10:08:29;;;;;;;1.95;1.02;;;;;;;18.06;100.00;97850.23;4457228;78;21406;-82
2022/09/15 10:14:51;;;;;;;1.72;1.25;;;;;;;17.90;100.00;97851.20;4344064;80;21177;-83
2022/09/15 10:20:53;;;;;;;3.40;1.55;;;;;;;17.80;100.00;97855.14;4459463;78;20969;-84
2022/09/15 10:27:26;;;;;;;2.45;1.82;;;;;;;17.77;100.00;97849.13;4383898;77;23395;-86
2022/09/15 10:33:34;;;;;;;2.25;2.00;;;;;;;17.78;100.00;97850.66;4311325;80;21057;-84
2022/09/15 10:39:57;;;;;;;4.12;2.12;;;;;;;17.77;100.00;97842.20;4363217;80;21001;-84
2022/09/15 10:46:31;;;;;;;2.85;2.50;;;;;;;17.84;100.00;97843.32;4282828;80;21038;-83
2022/09/15 10:53:00;;;;;;;4.05;3.52;;;;;;;17.91;100.00;97845.84;4371980;80;21032;-83
2022/09/15 10:59:46;;;;;;;4.10;3.12;;;;;;;17.98;100.00;97844.19;4356501;80;21046;-85
2022/09/15 11:06:18;;;;;;;3.85;3.15;;;;;;;17.96;100.00;97838.95;4146528;84;21543;-83
2022/09/15 11:12:42;;;;;;;3.22;2.90;;;;;;;17.97;100.00;97830.20;4162721;84;21051;-83
2022/09/15 11:19:06;;;;;;;3.70;2.95;;;;;;;18.03;100.00;97825.62;4131344;84;21035;-83
2022/09/15 11:25:36;;;;;;;6.00;2.33;;;;;;;18.02;100.00;97828.23;4267544;79;20994;-83
2022/09/15 11:31:41;;;;;;;2.90;1.70;;;;;;;18.05;100.00;97811.32;4398334;79;21009;-83
2022/09/15 11:37:50;;;;;;;3.50;2.02;;;;;;;18.07;100.00;97801.32;4381303;79;21072;-83
2022/09/15 11:44:08;;;;;;;3.33;2.17;;;;;;;18.11;100.00;97800.59;4374656;79;20991;-83
2022/09/15 11:50:32;;;;;;;2.08;1.87;;;;;;;18.12;100.00;97794.45;4384037;79;21027;-83
2022/09/15 11:56:44;;;;;;;2.20;2.00;;;;;;;18.21;100.00;97787.56;4376096;79;20994;-83
2022/09/15 12:03:17;;;;;;;2.45;1.87;;;;;;;18.48;100.00;97774.63;4393931;79;21013;-83
2022/09/15 12:09:20;;;;;;;1.85;1.35;;;;;;;18.57;100.00;97773.91;4382070;79;21321;-83
2022/09/15 12:15:28;;;;;;;1.50;1.35;;;;;;;18.70;100.00;97782.25;4389999;79;21415;-83
2022/09/15 12:22:00;;;;;;;3.00;1.75;;;;;;;18.71;100.00;97769.17;4391339;79;21001;-84
2022/09/15 12:28:39;;;;;;;2.87;1.67;;;;;;;18.70;100.00;97768.39;4359500;79;21058;-83
2022/09/15 12:35:24;;;;;;;1.87;1.60;;;;;;;18.60;100.00;97763.28;4370588;79;20961;-83
2022/09/15 12:41:27;;;;;;;2.25;1.70;;;;;;;18.50;100.00;97763.87;4382208;79;21014;-83
2022/09/15 12:47:35;;;;;;;2.15;1.65;;;;;;;18.38;100.00;97761.98;4379526;79;21072;-83
2022/09/15 13:00:40;;;;;;;3.10;1.37;;;;;;;18.33;100.00;97752.84;4268605;82;21011;-83
2022/09/15 13:07:07;;;;;;;2.20;1.67;;;;;;;18.36;100.00;97747.78;4273191;82;21011;-83
2022/09/15 13:13:35;;;;;;;2.02;1.40;;;;;;;18.42;100.00;97750.73;4185166;83;22261;-83
2022/09/15 13:19:46;;;;;;;1.65;1.52;;;;;;;18.37;100.00;97747.92;4100540;85;21790;-83
2022/09/15 13:25:50;;;;;;;2.95;1.52;;;;;;;18.30;100.00;97736.36;4369586;79;21042;-83
2022/09/15 13:32:23;;;;;;;2.37;1.45;;;;;;;18.28;100.00;97731.27;4382066;79;21082;-83
2022/09/15 13:39:00;;;;;;;2.10;1.62;;;;;;;18.29;100.00;97735.58;4368293;79;20963;-83
2022/09/15 13:45:22;;;;;;;2.62;1.98;;;;;;;18.25;100.00;97736.95;4388720;79;21072;-82
2022/09/15 13:51:30;;;;;;;3.15;2.58;;;;;;;18.20;100.00;97728.63;4380718;79;21045;-83
2022/09/15 13:57:34;;;;;;;3.72;2.72;;;;;;;18.15;100.00;97717.38;4398553;79;20990;-82
2022/09/15 14:03:59;;;;;;;3.72;2.50;;;;;;;18.08;100.00;97710.12;4374168;79;20963;-83
2022/09/15 14:17:23;;;;;;;3.42;2.42;;;;;;;18.04;100.00;97703.18;4400646;79;21001;-84
2022/09/15 14:23:27;;;;;;;3.58;2.80;;;;;;;18.00;100.00;97692.84;4395313;79;21494;-84
2022/09/15 14:29:28;;;;;;;4.75;3.12;;;;;;;17.95;100.00;97698.36;4373109;79;20955;-84
2022/09/15 14:35:36;;;;;;;8.10;3.17;;;;;;;17.90;100.00;97706.50;4380574;79;20989;-82
2022/09/15 14:41:39;;;;;;;3.87;3.40;;;;;;;17.81;100.00;97693.97;4387340;79;21578;-84
2022/09/15 14:47:42;;;;;;;4.85;3.20;;;;;;;17.76;100.00;97689.80;4388640;79;21042;-84
2022/09/15 14:53:59;;;;;;;4.67;4.15;;;;;;;17.73;100.00;97694.11;4366267;80;21006;-84
2022/09/15 15:00:12;;;;;;;4.50;3.62;;;;;;;17.68;100.00;97700.22;4364350;81;21613;-84
2022/09/15 15:06:29;;;;;;;5.08;3.98;;;;;;;17.60;100.00;97696.95;4367176;79;21886;-83
2022/09/15 15:12:42;;;;;;;5.20;4.30;;;;;;;17.57;100.00;97690.91;4381369;79;21050;-85
2022/09/15 15:18:43;;;;;;;5.30;3.70;;;;;;;17.48;100.00;97684.58;4386282;79;21020;-84
2022/09/15 15:24:51;;;;;;;4.17;3.30;;;;;;;17.44;100.00;97687.47;4357021;79;21077;-83
2022/09/15 15:31:25;;;;;;;6.92;4.15;;;;;;;17.43;100.00;97674.81;4315298;81;21886;-84
2022/09/15 15:37:32;;;;;;;8.33;4.20;;;;;;;17.37;100.00;97669.70;4327394;81;21017;-83
2022/09/15 15:43:34;;;;;;;6.57;4.67;;;;;;;17.31;100.00;97668.75;4392302;80;21002;-81
2022/09/15 15:49:35;;;;;;;5.65;5.05;;;;;;;17.29;100.00;97669.80;4392039;79;21016;-82
2022/09/15 15:55:41;;;;;;;7.47;4.35;;;;;;;17.23;100.00;97670.86;4388092;80;21599;-82
2022/09/15 16:01:51;;;;;;;6.55;4.92;;;;;;;17.20;100.00;97676.66;4345852;80;21012;-83
2022/09/15 16:07:58;;;;;;;8.03;5.85;;;;;;;17.18;100.00;97670.80;4379209;80;20963;-82
2022/09/15 16:14:19;;;;;;;7.33;5.70;;;;;;;17.07;100.00;97679.48;4346271;81;21046;-81
2022/09/15 16:20:23;;;;;;;9.68;6.70;;;;;;;17.01;100.00;97688.79;4316576;81;21030;-81
2022/09/15 16:26:25;;;;;;;11.70;6.33;;;;;;;16.91;100.00;97680.28;4395313;78;21458;-82
2022/09/15 16:32:30;;;;;;;8.70;6.87;;;;;;;16.88;100.00;97688.84;4404037;79;20939;-82
2022/09/15 16:38:33;;;;;;;9.73;6.97;;;;;;;16.87;100.00;97698.95;4423126;79;20986;-81
2022/09/15 16:44:35;;;;;;;10.00;7.25;;;;;;;16.88;100.00;97704.04;4415888;79;21804;-82
2022/09/15 16:50:38;;;;;;;11.38;7.75;;;;;;;16.90;100.00;97709.90;4422107;80;20998;-81
2022/09/15 16:56:40;;;;;;;10.70;7.28;;;;;;;16.87;100.00;97716.92;4364382;79;21006;-82
2022/09/15 17:02:41;;;;;;;11.93;7.33;;;;;;;16.87;100.00;97715.55;4420245;79;21478;-81
2022/09/15 17:08:45;;;;;;;10.65;7.28;;;;;;;16.84;100.00;97714.45;4424769;79;21012;-82
2022/09/15 17:14:46;;;;;;;12.03;9.70;;;;;;;16.81;100.00;97716.73;4409895;79;21956;-82
2022/09/15 17:20:49;;;;;;;9.80;8.48;;;;;;;16.78;100.00;97723.16;4400252;79;21485;-82
2022/09/15 17:26:50;;;;;;;12.68;9.75;;;;;;;16.73;100.00;97716.02;4378444;79;20969;-83
2022/09/15 17:33:07;;;;;;;23.57;18.20;;;;;;;16.61;100.00;97734.79;4400949;80;20945;-83
2022/09/15 17:39:11;;;;;;;30.10;21.30;;;;;;;16.37;100.00;97735.73;4372028;80;21052;-83
2022/09/15 17:45:23;;;;;;;30.72;22.15;;;;;;;16.12;100.00;97745.98;4294219;82;20992;-83
2022/09/15 17:51:25;;;;;;;30.48;22.00;;;;;;;15.97;100.00;97754.55;4372513;80;21008;-84
2022/09/15 17:57:26;;;;;;;30.57;21.65;;;;;;;15.87;100.00;97757.00;4372070;80;21020;-84
2022/09/15 18:03:36;;;;;;;32.63;21.52;;;;;;;15.88;100.00;97759.32;4451164;80;20980;-84
2022/09/15 18:09:37;;;;;;;33.08;22.45;;;;;;;15.94;100.00;97771.39;4398137;80;21966;-84
2022/09/15 18:15:42;;;;;;;27.70;21.05;;;;;;;15.98;100.00;97782.30;4375876;80;21089;-83
2022/09/15 18:21:47;;;;;;;32.25;22.60;;;;;;;16.00;100.00;97793.09;4373056;80;21001;-83
2022/09/15 18:28:01;;;;;;;30.37;21.50;;;;;;;15.98;100.00;97794.12;4347716;79;21427;-83
2022/09/15 18:34:04;;;;;;;39.18;24.77;;;;;;;15.96;100.00;97787.50;4395292;79;21039;-83
2022/09/15 18:40:09;;;;;;;30.23;23.00;;;;;;;15.91;100.00;97790.17;4367127;79;20986;-83
2022/09/15 18:46:10;;;;;;;30.95;23.12;;;;;;;15.82;100.00;97803.84;4371286;79;20990;-83
2022/09/15 18:52:13;;;;;;;29.55;19.30;;;;;;;15.74;100.00;97808.02;4408333;79;21036;-82
2022/09/15 18:58:19;;;;;;;22.73;15.08;;;;;;;15.65;100.00;97809.27;4415037;79;21017;-82
2022/09/15 19:04:20;;;;;;;18.10;13.35;;;;;;;15.54;100.00;97808.78;4408405;79;21064;-84
2022/09/15 19:10:24;;;;;;;21.20;13.45;;;;;;;15.45;100.00;97801.16;4399239;79;20966;-83
2022/09/15 19:16:27;;;;;;;21.07;14.20;;;;;;;15.31;100.00;97807.61;4432657;79;21597;-83
2022/09/15 19:28:59;;;;;;;22.60;17.45;;;;;;;15.32;100.00;97816.05;4268944;82;21054;-83
2022/09/15 19:35:01;;;;;;;22.27;17.35;;;;;;;15.28;100.00;97821.67;4381575;79;21534;-84
2022/09/15 19:41:11;;;;;;;23.73;16.37;;;;;;;15.28;100.00;97834.08;4365031;79;21037;-83
2022/09/15 19:47:13;;;;;;;22.80;16.40;;;;;;;15.30;100.00;97830.89;4416446;79;20968;-82
2022/09/15 19:53:14;;;;;;;26.68;16.48;;;;;;;15.22;100.00;97837.16;4375547;79;21087;-83
2022/09/15 19:59:18;;;;;;;21.68;17.15;;;;;;;15.13;100.00;97838.39;4367378;79;22017;-82
2022/09/15 20:05:21;;;;;;;29.02;18.52;;;;;;;15.04;100.00;97845.13;4377192;79;21433;-80
2022/09/15 20:11:25;;;;;;;25.37;17.50;;;;;;;15.06;100.00;97862.61;4384907;79;21877;-84
2022/09/15 20:17:41;;;;;;;26.95;18.62;;;;;;;14.91;100.00;97852.52;4384247;79;22002;-83
2022/09/15 20:23:44;;;;;;;23.73;17.85;;;;;;;14.80;100.00;97848.48;4379721;79;21557;-85
2022/09/15 20:29:46;;;;;;;28.45;18.62;;;;;;;14.76;100.00;97846.41;4389870;79;21782;-83
2022/09/15 20:35:48;;;;;;;30.37;18.50;;;;;;;14.71;100.00;97853.20;4394596;79;21509;-83
2022/09/15 20:41:50;;;;;;;31.17;19.98;;;;;;;14.76;100.00;97856.05;4394273;79;21083;-82
2022/09/15 20:48:41;;;;;;;31.12;20.25;;;;;;;14.77;100.00;97870.77;4384581;79;21062;-82
2022/09/15 20:54:56;;;;;;;27.65;18.20;;;;;;;14.76;100.00;97880.25;4377785;79;21014;-82
2022/09/15 21:01:09;;;;;;;25.20;18.70;;;;;;;14.74;100.00;97888.75;4381470;79;21506;-82
2022/09/15 21:07:11;;;;;;;25.65;17.48;;;;;;;14.71;100.00;97890.39;4379974;79;21032;-82
2022/09/15 21:13:13;;;;;;;29.50;18.90;;;;;;;14.69;100.00;97904.43;4337291;79;20986;-83
2022/09/15 21:19:14;;;;;;;35.17;21.60;;;;;;;14.68;100.00;97900.11;4376571;79;21041;-82
2022/09/15 21:25:16;;;;;;;27.02;19.35;;;;;;;14.58;100.00;97898.38;4384479;79;20987;-84
2022/09/15 21:31:22;;;;;;;27.40;17.73;;;;;;;14.50;100.00;97905.24;4391415;79;21747;-83
2022/09/15 21:37:26;;;;;;;20.68;13.50;;;;;;;14.51;100.00;97913.08;4373246;79;21129;-82
2022/09/15 21:43:36;;;;;;;14.07;10.55;;;;;;;14.39;100.00;97921.21;4383831;79;21037;-83
2022/09/15 21:49:38;;;;;;;15.78;11.35;;;;;;;14.31;100.00;97917.05;4374231;79;20962;-82
2022/09/15 21:55:39;;;;;;;16.55;12.55;;;;;;;14.30;100.00;97929.28;4375777;79;21022;-82
2022/09/15 22:01:41;;;;;;;16.40;11.28;;;;;;;14.32;100.00;97940.62;4388592;79;20969;-83
2022/09/15 22:07:42;;;;;;;15.28;11.28;;;;;;;14.26;100.00;97943.11;4397789;79;21017;-82
2022/09/15 22:20:21;;;;;;;15.72;9.70;;;;;;;14.11;100.00;97953.58;4376438;79;21466;-83
2022/09/15 22:26:27;;;;;;;21.45;9.75;;;;;;;14.14;100.00;97961.61;4383942;79;21027;-82
2022/09/15 22:32:29;;;;;;;15.75;9.35;;;;;;;14.11;100.00;97967.92;4371139;79;20997;-83
2022/09/15 22:45:21;;;;;;;15.63;10.45;;;;;;;13.93;100.00;97968.88;4397638;79;21402;-83
2022/09/15 22:51:32;;;;;;;15.10;10.40;;;;;;;13.91;100.00;97971.27;4434308;78;20985;-83
2022/09/15 22:57:38;;;;;;;14.75;9.55;;;;;;;13.83;100.00;97976.13;4445777;78;21031;-83
2022/09/15 23:03:38;;;;;;;20.08;10.88;;;;;;;13.76;100.00;97990.02;4433939;77;20983;-82
2022/09/15 23:09:39;;;;;;;16.12;10.98;;;;;;;13.78;100.00;97999.98;4440679;78;22144;-83
2022/09/15 23:15:42;;;;;;;19.75;10.85;;;;;;;13.80;100.00;97992.68;4417195;78;21009;-84
2022/09/15 23:21:44;;;;;;;18.95;10.35;;;;;;;13.78;100.00;97988.22;4430928;78;20987;-83
2022/09/15 23:27:45;;;;;;;13.65;8.63;;;;;;;13.73;100.00;97984.57;4445864;78;21002;-83
2022/09/15 23:33:47;;;;;;;13.05;7.35;;;;;;;13.67;100.00;97991.13;4363411;79;20966;-83
2022/09/15 23:39:51;;;;;;;17.30;8.25;;;;;;;13.61;100.00;97982.40;4387117;79;20995;-83
2022/09/15 23:45:52;;;;;;;15.38;9.68;;;;;;;13.51;100.00;97993.00;4362556;81;20966;-83
2022/09/15 23:51:54;;;;;;;14.87;9.63;;;;;;;13.40;100.00;97993.77;4374405;79;21037;-82
2022/09/15 23:57:57;;;;;;;14.93;10.18;;;;;;;13.20;100.00;97996.41;4398511;79;22082;-83
